Time;durP1;ratioP1;P1;durP2;ratioP2;P2;SDS_P1;SDS_P2;PMS_P1;PMS_P2;Temp;Humidity;BMP_temperature;BMP_pressure;BME280_temperature;BME280_humidity;BME280_pressure;Samples;Min_cycle;Max_cycle;Signal;HPM_P1;HPM_P2
2024/02/24 00:02:15;;;;;;;13.23;5.10;;;;;;;0.58;100.00;95606.06;5017585;28;20429;-80
2024/02/24 00:04:41;;;;;;;16.52;5.78;;;;;;;0.59;100.00;95609.47;5017247;28;20409;-80
2024/02/24 00:07:07;;;;;;;11.50;5.47;;;;;;;0.60;100.00;95603.25;5016775;28;20400;-80
2024/02/24 00:09:33;;;;;;;11.05;5.57;;;;;;;0.66;100.00;95610.13;5016891;28;20412;-80
2024/02/24 00:11:59;;;;;;;11.88;5.50;;;;;;;0.72;100.00;95607.38;5017565;28;20454;-80
2024/02/24 00:14:26;;;;;;;12.43;5.82;;;;;;;0.76;100.00;95608.47;5017432;28;20458;-80
2024/02/24 00:16:52;;;;;;;12.65;5.50;;;;;;;0.79;100.00;95602.03;5016887;28;20397;-80
2024/02/24 00:19:19;;;;;;;12.20;4.68;;;;;;;0.78;100.00;95601.25;5018193;28;20396;-82
2024/02/24 00:21:45;;;;;;;12.77;6.00;;;;;;;0.74;100.00;95591.53;5017456;28;20405;-79
2024/02/24 00:24:11;;;;;;;14.07;5.93;;;;;;;0.70;100.00;95588.59;5017457;28;20397;-80
2024/02/24 00:26:39;;;;;;;10.13;5.50;;;;;;;0.70;100.00;95595.59;5017700;28;20492;-80
2024/02/24 00:29:05;;;;;;;11.30;5.60;;;;;;;0.64;100.00;95596.53;5017562;28;20480;-80
2024/02/24 00:31:31;;;;;;;11.88;5.40;;;;;;;0.64;100.00;95599.94;5018052;28;20928;-80
2024/02/24 00:33:57;;;;;;;11.63;5.47;;;;;;;0.62;100.00;95604.56;5017507;28;20496;-80
2024/02/24 00:36:25;;;;;;;13.32;5.47;;;;;;;0.49;100.00;95597.03;5017436;28;20439;-80
2024/02/24 00:38:51;;;;;;;14.60;5.90;;;;;;;0.44;100.00;95589.16;5017606;28;20396;-80
2024/02/24 00:41:17;;;;;;;10.80;5.60;;;;;;;0.42;100.00;95596.41;5017581;28;20492;-80
2024/02/24 00:43:44;;;;;;;11.27;5.53;;;;;;;0.36;100.00;95607.72;5016697;28;20401;-81
2024/02/24 00:46:10;;;;;;;17.45;5.43;;;;;;;0.36;100.00;95603.31;5017365;28;20404;-81
2024/02/24 00:48:36;;;;;;;9.13;5.32;;;;;;;0.37;100.00;95594.50;5017450;28;20430;-80
2024/02/24 00:51:03;;;;;;;11.98;5.10;;;;;;;0.38;100.00;95601.25;5016995;28;20460;-81
2024/02/24 00:53:30;;;;;;;10.73;5.30;;;;;;;0.40;100.00;95606.22;5017063;28;20527;-81
2024/02/24 00:55:56;;;;;;;11.48;5.70;;;;;;;0.32;100.00;95610.00;5016510;28;20456;-80
2024/02/24 00:58:22;;;;;;;10.68;5.25;;;;;;;0.29;100.00;95605.25;5016543;28;20455;-80
2024/02/24 01:00:49;;;;;;;9.00;5.00;;;;;;;0.26;100.00;95603.09;5016860;28;20400;-80
2024/02/24 01:03:15;;;;;;;9.75;5.55;;;;;;;0.24;100.00;95597.34;5017118;28;20420;-80
2024/02/24 01:05:41;;;;;;;12.65;5.07;;;;;;;0.22;100.00;95596.00;5016641;28;20396;-80
2024/02/24 01:08:08;;;;;;;7.60;5.32;;;;;;;0.21;100.00;95603.00;5016987;28;20401;-78
2024/02/24 01:10:35;;;;;;;11.05;5.30;;;;;;;0.20;100.00;95605.84;5016745;28;20401;-81
2024/02/24 01:13:01;;;;;;;12.43;5.40;;;;;;;0.20;100.00;95611.84;5016516;28;20436;-81
2024/02/24 01:15:27;;;;;;;12.60;5.68;;;;;;;0.16;100.00;95623.69;5016556;28;20445;-81
2024/02/24 01:17:56;;;;;;;12.70;4.85;;;;;;;0.12;100.00;95611.38;5016721;28;20754;-80
2024/02/24 01:20:24;;;;;;;10.85;5.45;;;;;;;0.16;100.00;95609.91;5020466;28;20400;-80
2024/02/24 01:22:53;;;;;;;14.00;5.33;;;;;;;0.23;100.00;95621.75;5020304;28;20718;-80
2024/02/24 01:25:20;;;;;;;10.30;4.78;;;;;;;0.24;100.00;95617.34;5020254;28;20404;-80
2024/02/24 01:27:49;;;;;;;15.10;5.28;;;;;;;0.29;100.00;95615.66;5020263;28;20397;-81
2024/02/24 01:30:15;;;;;;;12.13;5.85;;;;;;;0.38;100.00;95616.88;5020603;28;20480;-81
2024/02/24 01:32:41;;;;;;;12.68;5.85;;;;;;;0.46;100.00;95618.31;5020356;28;20427;-79
2024/02/24 01:35:08;;;;;;;12.32;5.72;;;;;;;0.54;100.00;95617.97;5019787;28;20467;-81
2024/02/24 01:37:34;;;;;;;10.30;5.45;;;;;;;0.66;100.00;95620.53;5020918;28;20393;-81
2024/02/24 01:40:00;;;;;;;16.35;5.82;;;;;;;0.66;100.00;95631.75;5020670;28;20408;-81
2024/02/24 01:42:27;;;;;;;9.18;5.20;;;;;;;0.73;100.00;95635.00;5020863;28;20407;-81
2024/02/24 01:44:55;;;;;;;11.95;5.53;;;;;;;0.76;100.00;95642.34;5020525;28;20401;-81
2024/02/24 01:47:22;;;;;;;9.77;5.70;;;;;;;0.95;100.00;95652.59;5020111;28;20408;-81
2024/02/24 01:49:49;;;;;;;15.17;6.10;;;;;;;1.02;100.00;95643.59;5020127;28;20397;-80
2024/02/24 01:52:15;;;;;;;11.95;5.88;;;;;;;1.28;100.00;95646.66;5020868;28;20504;-81
2024/02/24 01:54:42;;;;;;;11.55;5.75;;;;;;;1.45;100.00;95637.03;5020031;28;20424;-80
2024/02/24 01:57:09;;;;;;;9.90;5.60;;;;;;;1.53;100.00;95640.03;5019875;28;20404;-81
2024/02/24 01:59:35;;;;;;;10.95;5.40;;;;;;;1.55;100.00;95637.19;5020501;28;20476;-81
2024/02/24 02:02:03;;;;;;;15.20;5.43;;;;;;;1.61;100.00;95643.28;5019686;28;20397;-81
2024/02/24 02:04:29;;;;;;;12.25;5.28;;;;;;;1.72;100.00;95650.25;5020578;28;20413;-80
2024/02/24 02:06:57;;;;;;;15.15;5.10;;;;;;;2.00;100.00;95642.31;5019987;28;20754;-81
2024/02/24 02:09:24;;;;;;;13.57;5.10;;;;;;;2.05;100.00;95649.41;5024318;28;20434;-80
2024/02/24 02:11:50;;;;;;;13.40;4.78;;;;;;;2.17;100.00;95645.69;5033591;28;20829;-79
2024/02/24 02:14:16;;;;;;;8.07;4.07;;;;;;;2.20;100.00;95636.56;5029442;28;20423;-80
2024/02/24 02:16:42;;;;;;;6.60;3.83;;;;;;;2.07;100.00;95642.13;5020115;28;20401;-81
2024/02/24 02:19:09;;;;;;;10.10;3.80;;;;;;;1.88;100.00;95631.94;5020004;28;20396;-81
2024/02/24 02:21:39;;;;;;;12.47;4.80;;;;;;;1.82;100.00;95630.31;5019455;28;20455;-81
2024/02/24 02:24:07;;;;;;;10.68;4.43;;;;;;;1.75;100.00;95634.91;5019783;28;20945;-81
2024/02/24 02:26:33;;;;;;;9.00;3.80;;;;;;;1.62;100.00;95637.03;5019015;28;20901;-81
2024/02/24 02:28:59;;;;;;;7.85;3.90;;;;;;;1.55;100.00;95634.59;5019611;28;20424;-81
2024/02/24 02:31:25;;;;;;;12.10;5.00;;;;;;;1.43;100.00;95628.63;5018261;28;20397;-81
2024/02/24 02:33:51;;;;;;;12.00;4.32;;;;;;;1.45;100.00;95637.03;5019331;28;20511;-81
2024/02/24 02:36:18;;;;;;;7.73;4.43;;;;;;;1.37;100.00;95645.22;5019668;28;20433;-81
2024/02/24 02:38:44;;;;;;;10.93;4.10;;;;;;;1.30;100.00;95645.38;5019639;28;20408;-81
2024/02/24 02:41:11;;;;;;;8.98;3.83;;;;;;;1.23;100.00;95644.75;5019468;28;20579;-81
2024/02/24 02:43:38;;;;;;;9.05;3.63;;;;;;;1.23;100.00;95644.75;5019389;28;20488;-81
2024/02/24 02:46:04;;;;;;;8.05;3.25;;;;;;;1.14;100.00;95649.53;5019983;28;20401;-81
2024/02/24 02:48:30;;;;;;;7.05;3.60;;;;;;;1.09;100.00;95648.66;5019559;28;20401;-81
2024/02/24 02:50:56;;;;;;;9.02;3.80;;;;;;;1.03;100.00;95658.22;5019676;28;20455;-81
2024/02/24 02:53:22;;;;;;;7.53;3.97;;;;;;;1.20;100.00;95663.47;5019163;28;20397;-81
2024/02/24 02:55:48;;;;;;;7.68;3.65;;;;;;;1.19;100.00;95658.50;5019446;28;20424;-81
2024/02/24 02:58:16;;;;;;;9.30;3.47;;;;;;;1.13;100.00;95657.59;5019249;28;20949;-81
2024/02/24 03:00:45;;;;;;;5.00;3.25;;;;;;;1.05;100.00;95653.53;5019516;28;20425;-81
2024/02/24 03:03:11;;;;;;;6.75;3.65;;;;;;;1.04;100.00;95653.81;5019355;28;20412;-81
2024/02/24 03:05:37;;;;;;;5.85;3.60;;;;;;;0.99;100.00;95646.66;5018987;28;20405;-81
2024/02/24 03:08:03;;;;;;;8.25;3.30;;;;;;;1.06;100.00;95652.53;5019228;28;20523;-81
2024/02/24 03:10:29;;;;;;;5.20;3.05;;;;;;;1.16;100.00;95649.31;5019572;28;20458;-81
2024/02/24 03:12:56;;;;;;;4.60;3.20;;;;;;;1.24;100.00;95637.72;5020030;28;20794;-81
2024/02/24 03:15:23;;;;;;;5.85;3.13;;;;;;;1.26;100.00;95628.66;5019927;28;20416;-81
2024/02/24 03:17:49;;;;;;;5.72;3.05;;;;;;;1.29;100.00;95629.97;5028517;28;20446;-81
2024/02/24 03:20:15;;;;;;;5.55;2.92;;;;;;;1.33;100.00;95616.25;5035045;28;20408;-79
2024/02/24 03:22:42;;;;;;;3.27;2.60;;;;;;;1.32;100.00;95622.50;5030331;28;20426;-81
2024/02/24 03:25:08;;;;;;;3.78;2.45;;;;;;;1.40;100.00;95632.53;5018653;28;20751;-81
2024/02/24 03:27:34;;;;;;;7.35;2.72;;;;;;;1.38;100.00;95621.53;5019382;28;20400;-81
2024/02/24 03:30:00;;;;;;;2.97;2.42;;;;;;;1.39;100.00;95619.72;5018795;28;20839;-80
2024/02/24 03:32:28;;;;;;;3.07;2.10;;;;;;;1.39;100.00;95625.72;5018341;28;20471;-80
2024/02/24 03:34:54;;;;;;;4.33;2.70;;;;;;;1.38;100.00;95626.75;5020232;28;20412;-79
2024/02/24 03:37:20;;;;;;;3.63;2.47;;;;;;;1.35;100.00;95627.25;5024905;28;20401;-81
2024/02/24 03:39:46;;;;;;;3.60;2.30;;;;;;;1.35;100.00;95629.84;5001293;28;20412;-81
2024/02/24 03:42:12;;;;;;;6.10;2.45;;;;;;;1.42;100.00;95627.88;5018126;28;20412;-81
2024/02/24 03:44:39;;;;;;;4.53;2.35;;;;;;;1.35;100.00;95619.41;5018392;28;20409;-82
2024/02/24 03:47:05;;;;;;;5.43;2.50;;;;;;;1.24;100.00;95630.69;5018222;28;20483;-81
2024/02/24 03:49:33;;;;;;;4.85;2.38;;;;;;;1.15;100.00;95632.09;5018670;28;20458;-82
2024/02/24 03:51:59;;;;;;;4.80;2.60;;;;;;;1.15;100.00;95648.53;5018621;28;20440;-81
2024/02/24 03:54:25;;;;;;;4.07;2.38;;;;;;;1.08;100.00;95650.47;5018118;28;20467;-81
2024/02/24 03:56:52;;;;;;;3.78;2.40;;;;;;;1.14;100.00;95657.34;5018437;28;20499;-81
2024/02/24 03:59:18;;;;;;;7.22;2.40;;;;;;;1.20;100.00;95655.66;5018258;28;20424;-81
2024/02/24 04:01:44;;;;;;;4.47;2.30;;;;;;;1.12;100.00;95662.03;5018148;28;20424;-81
2024/02/24 04:04:10;;;;;;;2.58;2.20;;;;;;;1.07;100.00;95656.72;5018109;28;20409;-79
2024/02/24 04:06:38;;;;;;;5.35;2.35;;;;;;;1.28;100.00;95657.84;5017693;28;20397;-80
2024/02/24 04:09:04;;;;;;;4.75;2.40;;;;;;;1.23;100.00;95652.56;5018046;28;20408;-81
2024/02/24 04:11:30;;;;;;;3.72;2.08;;;;;;;1.13;100.00;95663.59;5018150;28;20781;-81
2024/02/24 04:13:56;;;;;;;3.95;2.30;;;;;;;1.34;100.00;95659.53;5017974;28;20973;-81
2024/02/24 04:16:22;;;;;;;7.22;2.42;;;;;;;1.38;100.00;95670.28;5017927;28;20904;-80
2024/02/24 04:18:48;;;;;;;3.20;2.30;;;;;;;1.30;100.00;95674.06;5017450;28;20422;-81
2024/02/24 04:21:17;;;;;;;5.93;2.45;;;;;;;1.40;100.00;95671.63;5017716;28;20423;-80
2024/02/24 04:23:44;;;;;;;3.70;2.47;;;;;;;1.35;100.00;95675.97;5017436;28;20535;-81
2024/02/24 04:26:10;;;;;;;5.22;2.47;;;;;;;1.51;100.00;95668.16;5017366;28;20488;-81
2024/02/24 04:28:37;;;;;;;3.10;2.37;;;;;;;1.42;100.00;95674.00;5017398;28;20420;-81
2024/02/24 04:31:11;;;;;;;4.28;2.50;;;;;;;1.34;100.00;95671.78;5017157;28;20447;-86
2024/02/24 04:33:37;;;;;;;6.38;2.67;;;;;;;1.36;100.00;95669.72;5016795;28;20417;-85
2024/02/24 04:36:04;;;;;;;5.40;2.90;;;;;;;1.49;100.00;95680.66;5015940;28;20470;-84
2024/02/24 04:38:30;;;;;;;3.45;2.50;;;;;;;1.40;100.00;95683.88;5015933;28;20773;-84
2024/02/24 04:40:58;;;;;;;4.88;2.90;;;;;;;1.48;100.00;95680.88;4997987;28;20405;-85
2024/02/24 04:43:24;;;;;;;5.18;2.88;;;;;;;1.51;100.00;95686.41;5016000;28;20421;-84
2024/02/24 04:45:50;;;;;;;4.88;2.30;;;;;;;1.47;100.00;95684.50;5016709;28;20431;-84
2024/02/24 04:48:16;;;;;;;6.05;2.67;;;;;;;1.41;100.00;95682.84;5018149;28;20857;-84
2024/02/24 04:50:45;;;;;;;5.18;2.50;;;;;;;1.49;100.00;95682.47;5017616;28;20484;-86
2024/02/24 04:53:11;;;;;;;4.07;2.40;;;;;;;1.46;100.00;95675.09;5016018;28;20447;-84
2024/02/24 04:55:38;;;;;;;4.25;2.60;;;;;;;1.88;100.00;95671.09;5016446;28;20420;-84
2024/02/24 04:58:06;;;;;;;4.63;2.60;;;;;;;1.80;100.00;95671.50;5016431;28;20844;-86
2024/02/24 05:00:32;;;;;;;4.57;2.35;;;;;;;1.70;100.00;95688.81;5016416;28;20393;-85
2024/02/24 05:02:58;;;;;;;4.72;2.10;;;;;;;1.67;100.00;95684.84;5015753;28;20428;-84
2024/02/24 05:05:24;;;;;;;4.88;2.28;;;;;;;1.62;100.00;95689.97;5015704;28;20468;-84
2024/02/24 05:07:50;;;;;;;3.65;2.30;;;;;;;1.63;100.00;95703.81;5016061;28;20415;-84
2024/02/24 05:10:16;;;;;;;3.80;2.10;;;;;;;1.55;100.00;95716.22;5017012;28;20397;-84
2024/02/24 05:12:47;;;;;;;3.38;2.25;;;;;;;1.49;100.00;95716.38;5018238;28;20412;-84
2024/02/24 05:15:17;;;;;;;3.53;2.20;;;;;;;1.47;100.00;95718.41;5020603;28;20925;-84
2024/02/24 05:17:43;;;;;;;3.80;2.15;;;;;;;1.47;100.00;95723.63;5016499;28;20401;-83
2024/02/24 05:20:12;;;;;;;4.40;2.42;;;;;;;1.36;100.00;95708.81;5016228;28;20396;-84
2024/02/24 05:22:38;;;;;;;3.78;2.20;;;;;;;1.38;100.00;95718.00;5016489;28;20478;-85
2024/02/24 05:25:06;;;;;;;3.50;2.07;;;;;;;1.40;100.00;95726.38;5019161;28;20452;-85
2024/02/24 05:27:32;;;;;;;3.92;2.33;;;;;;;1.43;100.00;95727.69;5017933;28;20439;-85
2024/02/24 05:29:58;;;;;;;2.50;2.10;;;;;;;1.45;100.00;95729.06;5015831;28;20401;-86
2024/02/24 05:32:26;;;;;;;3.40;1.88;;;;;;;1.45;100.00;95723.06;5015971;28;20492;-86
2024/02/24 05:34:52;;;;;;;2.88;2.10;;;;;;;1.51;100.00;95732.53;5014771;28;20475;-80
2024/02/24 05:37:18;;;;;;;5.00;2.30;;;;;;;1.48;100.00;95731.22;5016233;28;20408;-85
2024/02/24 05:39:45;;;;;;;2.38;1.92;;;;;;;1.49;100.00;95737.22;5017416;28;20421;-83
2024/02/24 05:42:12;;;;;;;2.28;2.05;;;;;;;1.50;100.00;95736.19;5016606;28;20408;-84
2024/02/24 05:44:38;;;;;;;2.63;1.98;;;;;;;1.49;100.00;95742.44;5016972;28;20432;-84
2024/02/24 05:47:05;;;;;;;2.35;1.98;;;;;;;1.50;100.00;95738.81;5016811;28;20428;-84
2024/02/24 05:49:32;;;;;;;3.83;2.28;;;;;;;1.51;100.00;95735.16;5014338;28;20483;-85
2024/02/24 05:51:58;;;;;;;4.35;2.00;;;;;;;1.50;100.00;95746.63;5013776;28;20443;-84
2024/02/24 05:54:24;;;;;;;3.33;2.00;;;;;;;1.53;100.00;95743.53;5016292;28;20412;-83
2024/02/24 05:56:50;;;;;;;4.20;2.10;;;;;;;1.56;100.00;95748.28;5014406;28;20409;-83
2024/02/24 05:59:17;;;;;;;2.90;2.10;;;;;;;1.62;100.00;95757.78;5016348;28;20466;-82
2024/02/24 06:01:43;;;;;;;2.72;2.20;;;;;;;1.63;100.00;95758.56;5014700;28;20406;-83
2024/02/24 06:04:09;;;;;;;3.17;2.30;;;;;;;1.62;100.00;95759.59;5015869;28;20401;-83
2024/02/24 06:06:36;;;;;;;3.15;2.13;;;;;;;1.61;100.00;95766.63;5018914;28;20410;-84
2024/02/24 06:09:03;;;;;;;8.00;2.65;;;;;;;1.66;100.00;95769.31;5023861;28;20438;-83
2024/02/24 06:11:29;;;;;;;4.13;2.55;;;;;;;1.67;100.00;95768.28;5032032;28;20401;-78
2024/02/24 06:13:55;;;;;;;4.20;2.90;;;;;;;1.74;100.00;95770.75;5025527;28;20760;-81
2024/02/24 06:16:21;;;;;;;6.57;2.55;;;;;;;1.77;100.00;95773.69;5017513;28;20460;-81
2024/02/24 06:18:47;;;;;;;5.88;2.92;;;;;;;1.83;100.00;95777.19;5018950;28;20397;-84
2024/02/24 06:21:14;;;;;;;5.83;3.07;;;;;;;1.84;100.00;95773.53;5031079;28;20389;-84
2024/02/24 06:23:41;;;;;;;11.55;3.70;;;;;;;1.86;100.00;95798.38;5023187;28;20409;-80
2024/02/24 06:26:07;;;;;;;5.15;3.15;;;;;;;2.01;100.00;95802.28;5018000;28;20453;-81
2024/02/24 06:28:35;;;;;;;5.22;3.33;;;;;;;2.09;100.00;95810.50;5028733;28;20458;-79
2024/02/24 06:31:01;;;;;;;5.88;3.25;;;;;;;2.15;100.00;95806.94;5030142;28;20431;-83
2024/02/24 06:33:27;;;;;;;5.30;2.97;;;;;;;2.17;100.00;95812.72;5016524;28;20408;-78
2024/02/24 06:35:53;;;;;;;6.22;3.30;;;;;;;2.29;100.00;95817.88;5016524;28;20447;-80
2024/02/24 06:38:20;;;;;;;8.27;3.45;;;;;;;2.16;100.00;95818.19;5019371;28;20897;-81
2024/02/24 06:40:47;;;;;;;11.40;3.95;;;;;;;2.28;100.00;95816.28;5029920;28;20507;-80
2024/02/24 06:43:14;;;;;;;5.00;2.80;;;;;;;2.48;100.00;95815.81;5027132;28;20401;-77
2024/02/24 06:45:40;;;;;;;6.07;3.30;;;;;;;2.36;100.00;95818.50;5025247;28;20411;-79
2024/02/24 06:48:07;;;;;;;6.43;3.15;;;;;;;2.40;100.00;95814.41;5022599;28;20961;-80
2024/02/24 06:50:33;;;;;;;3.77;3.10;;;;;;;2.42;100.00;95830.59;5016661;28;20482;-82
2024/02/24 06:52:59;;;;;;;4.90;2.88;;;;;;;2.36;100.00;95823.72;5017613;28;20412;-82
2024/02/24 06:55:25;;;;;;;8.57;3.22;;;;;;;2.37;100.00;95827.13;5017120;28;20504;-82
2024/02/24 06:57:53;;;;;;;7.03;3.10;;;;;;;2.27;100.00;95835.56;5017931;28;20443;-81
2024/02/24 07:00:19;;;;;;;5.47;2.80;;;;;;;2.39;100.00;95831.09;5017222;28;20412;-80
2024/02/24 07:02:46;;;;;;;7.53;3.03;;;;;;;2.30;100.00;95840.34;5017285;28;20440;-79
2024/02/24 07:05:12;;;;;;;5.28;3.08;;;;;;;2.41;100.00;95843.88;5018262;28;20901;-82
2024/02/24 07:07:39;;;;;;;6.88;2.80;;;;;;;2.38;100.00;95847.78;5022509;28;20909;-81
2024/02/24 07:10:05;;;;;;;3.10;2.53;;;;;;;2.48;100.00;95855.00;5021224;28;20401;-81
2024/02/24 07:12:32;;;;;;;6.68;2.70;;;;;;;2.38;100.00;95866.06;5025980;28;20499;-81
2024/02/24 07:14:59;;;;;;;4.75;2.78;;;;;;;2.30;100.00;95875.06;5014930;28;20913;-81
2024/02/24 07:17:26;;;;;;;4.72;2.70;;;;;;;2.55;100.00;95889.59;5024306;28;20432;-81
2024/02/24 07:19:53;;;;;;;4.00;2.75;;;;;;;2.64;100.00;95890.75;5019989;28;20457;-81
2024/02/24 07:22:19;;;;;;;3.93;2.57;;;;;;;2.72;100.00;95898.19;5019470;28;20904;-83
2024/02/24 07:24:45;;;;;;;3.72;2.40;;;;;;;2.73;100.00;95899.78;5018403;28;20440;-82
2024/02/24 07:27:12;;;;;;;2.65;2.13;;;;;;;2.60;100.00;95915.78;5020983;28;20407;-83
2024/02/24 07:29:38;;;;;;;3.40;2.50;;;;;;;2.78;100.00;95914.75;5018745;28;20464;-79
2024/02/24 07:32:06;;;;;;;4.60;2.50;;;;;;;2.65;100.00;95913.22;5017823;28;20395;-81
2024/02/24 07:34:33;;;;;;;3.20;2.22;;;;;;;2.59;100.00;95919.41;5018544;28;20457;-82
2024/02/24 07:36:59;;;;;;;5.73;2.47;;;;;;;2.74;100.00;95914.44;5018751;28;20392;-80
2024/02/24 07:39:25;;;;;;;2.88;2.10;;;;;;;2.67;100.00;95925.03;5017671;28;20439;-79
2024/02/24 07:41:52;;;;;;;2.45;2.25;;;;;;;2.68;100.00;95925.84;5017421;28;20405;-81
2024/02/24 07:44:18;;;;;;;3.23;2.20;;;;;;;2.97;100.00;95937.00;5017180;28;20435;-80
2024/02/24 07:46:44;;;;;;;3.40;2.00;;;;;;;2.97;100.00;95943.03;5016712;28;20435;-81
2024/02/24 07:49:12;;;;;;;2.67;2.10;;;;;;;2.96;100.00;95941.44;5019956;28;20797;-81
2024/02/24 07:51:38;;;;;;;2.38;2.08;;;;;;;3.11;100.00;95954.72;5017546;28;20424;-82
2024/02/24 07:54:05;;;;;;;2.30;1.83;;;;;;;3.25;100.00;95954.41;5018076;28;20770;-81
2024/02/24 07:56:33;;;;;;;1.80;1.70;;;;;;;3.20;100.00;95949.91;5015052;28;20416;-82
2024/02/24 07:58:59;;;;;;;1.90;1.75;;;;;;;2.98;100.00;95955.06;5017017;28;20683;-80
2024/02/24 08:01:27;;;;;;;1.65;1.55;;;;;;;2.81;100.00;95956.88;5016849;28;20412;-82
2024/02/24 08:03:53;;;;;;;2.80;1.73;;;;;;;3.06;100.00;95949.44;5019489;28;20436;-81
2024/02/24 08:06:20;;;;;;;1.75;1.63;;;;;;;3.01;100.00;95953.78;4999041;28;20449;-81
2024/02/24 08:08:46;;;;;;;2.17;1.77;;;;;;;2.96;100.00;95967.56;5027635;28;20954;-81
2024/02/24 08:11:13;;;;;;;2.58;1.75;;;;;;;2.88;100.00;95983.63;5019935;28;20443;-82
2024/02/24 08:13:41;;;;;;;1.90;1.65;;;;;;;2.91;100.00;95979.78;5026171;28;20415;-80
2024/02/24 08:16:09;;;;;;;1.88;1.60;;;;;;;3.00;100.00;95987.00;5021545;28;20465;-81
2024/02/24 08:18:35;;;;;;;1.90;1.70;;;;;;;2.82;100.00;95994.25;5019246;28;20495;-81
2024/02/24 08:21:06;;;;;;;1.70;1.60;;;;;;;2.71;100.00;95993.28;5028161;28;20420;-81
2024/02/24 08:23:34;;;;;;;2.70;1.85;;;;;;;2.68;100.00;95997.16;5022063;28;20455;-83
2024/02/24 08:26:00;;;;;;;1.65;1.55;;;;;;;2.99;100.00;95990.63;5019592;28;20439;-82
2024/02/24 08:28:27;;;;;;;1.88;1.60;;;;;;;3.14;100.00;95995.31;5016642;28;20488;-85
2024/02/24 08:30:53;;;;;;;2.65;1.70;;;;;;;3.13;100.00;96001.56;5017933;28;20455;-84
2024/02/24 08:33:25;;;;;;;3.50;1.70;;;;;;;3.13;100.00;95996.31;5019818;28;20393;-81
2024/02/24 08:35:52;;;;;;;2.05;1.60;;;;;;;3.56;100.00;96003.50;5023732;28;21008;-80
2024/02/24 08:38:19;;;;;;;1.50;1.40;;;;;;;4.14;100.00;96015.25;5028515;28;20396;-82
2024/02/24 08:40:46;;;;;;;1.50;1.40;;;;;;;4.73;100.00;95997.03;5023334;28;20400;-81
2024/02/24 08:43:13;;;;;;;1.90;1.40;;;;;;;5.02;100.00;95993.91;5023076;28;20412;-82
2024/02/24 08:45:39;;;;;;;2.40;1.27;;;;;;;5.30;100.00;95989.38;5025152;28;20480;-82
2024/02/24 08:48:06;;;;;;;1.70;1.40;;;;;;;5.63;100.00;95996.19;5025391;28;20463;-81
2024/02/24 08:50:32;;;;;;;1.40;1.30;;;;;;;5.74;100.00;95987.31;5019661;28;20405;-82
2024/02/24 08:52:58;;;;;;;1.30;1.20;;;;;;;5.65;100.00;95994.84;5025825;28;20406;-82
2024/02/24 08:55:24;;;;;;;1.75;1.30;;;;;;;6.06;100.00;96003.00;5022827;28;20439;-81
2024/02/24 08:57:52;;;;;;;1.50;1.40;;;;;;;6.28;100.00;95987.06;5029815;28;20399;-82
2024/02/24 09:00:19;;;;;;;1.30;1.20;;;;;;;6.38;100.00;95998.41;5022388;28;20485;-82
2024/02/24 09:02:45;;;;;;;1.30;1.20;;;;;;;6.75;100.00;96018.47;5025392;28;20901;-84
2024/02/24 09:05:11;;;;;;;1.63;1.20;;;;;;;7.04;100.00;96003.78;5015542;28;20411;-83
2024/02/24 09:07:37;;;;;;;1.83;1.23;;;;;;;7.11;100.00;95999.06;5022763;28;20399;-83
2024/02/24 09:10:04;;;;;;;2.58;1.20;;;;;;;7.28;100.00;95996.16;5025887;28;20407;-83
2024/02/24 09:12:30;;;;;;;2.45;1.27;;;;;;;7.27;100.00;96000.66;5029014;28;20395;-83
2024/02/24 09:14:58;;;;;;;1.07;1.00;;;;;;;7.29;100.00;96003.03;5019831;28;20481;-82
2024/02/24 09:17:24;;;;;;;1.38;1.10;;;;;;;7.26;100.00;96004.31;5024232;28;20471;-81
2024/02/24 09:19:50;;;;;;;2.80;1.10;;;;;;;7.03;100.00;96004.03;5016013;28;20452;-82
2024/02/24 09:22:17;;;;;;;1.85;1.10;;;;;;;7.13;100.00;96010.13;5017234;28;20421;-82
2024/02/24 09:24:43;;;;;;;2.13;1.00;;;;;;;7.54;100.00;96015.34;5017660;28;20435;-83
2024/02/24 09:27:09;;;;;;;1.10;1.00;;;;;;;7.46;100.00;96021.16;5018371;28;20413;-82
2024/02/24 09:29:35;;;;;;;1.05;1.00;;;;;;;7.78;100.00;96021.66;5016860;28;20412;-80
2024/02/24 09:32:03;;;;;;;0.90;0.90;;;;;;;8.14;100.00;96025.78;5021351;28;20843;-82
2024/02/24 09:34:29;;;;;;;1.13;1.02;;;;;;;8.15;100.00;96037.09;5016258;28;20771;-84
2024/02/24 09:36:56;;;;;;;1.20;1.10;;;;;;;7.96;100.00;96042.19;5020527;28;20758;-83
2024/02/24 09:39:22;;;;;;;1.30;1.20;;;;;;;8.03;100.00;96044.53;5021784;28;20463;-83
2024/02/24 09:41:49;;;;;;;1.23;1.10;;;;;;;8.80;100.00;96046.63;5023896;28;20414;-80
2024/02/24 09:44:16;;;;;;;1.40;1.00;;;;;;;9.84;100.00;96041.94;5022557;28;20416;-83
2024/02/24 09:46:43;;;;;;;0.93;0.90;;;;;;;10.12;100.00;96034.25;5018446;28;20396;-83
2024/02/24 09:49:12;;;;;;;0.77;0.77;;;;;;;10.56;100.00;96034.03;5020403;28;20439;-84
2024/02/24 09:51:43;;;;;;;0.80;0.80;;;;;;;10.62;100.00;96038.97;5026032;28;20408;-82
2024/02/24 09:54:09;;;;;;;0.95;0.95;;;;;;;11.07;100.00;96048.16;5024466;28;20732;-84
2024/02/24 09:56:36;;;;;;;2.33;0.90;;;;;;;11.00;100.00;96044.28;5026371;28;20401;-85
2024/02/24 09:59:03;;;;;;;1.10;1.00;;;;;;;11.46;100.00;96041.78;5027300;28;20904;-83
2024/02/24 10:01:29;;;;;;;1.10;0.85;;;;;;;11.92;100.00;96042.63;5028574;28;20504;-82
2024/02/24 10:03:55;;;;;;;0.80;0.80;;;;;;;12.20;100.00;96032.03;5029943;28;20428;-82
2024/02/24 10:06:22;;;;;;;0.85;0.80;;;;;;;12.38;100.00;96041.78;5035321;28;20412;-82
2024/02/24 10:08:49;;;;;;;0.70;0.70;;;;;;;12.80;100.00;96044.09;5037370;28;20406;-81
2024/02/24 10:11:16;;;;;;;0.97;0.87;;;;;;;12.17;100.00;96045.91;5027563;28;20445;-83
2024/02/24 10:13:43;;;;;;;0.85;0.80;;;;;;;13.04;100.00;96043.09;5024552;28;20442;-83
2024/02/24 10:16:10;;;;;;;0.70;0.70;;;;;;;13.74;100.00;96035.38;5024540;28;20413;-84
2024/02/24 10:18:40;;;;;;;1.00;0.77;;;;;;;13.94;100.00;96042.06;5021904;28;20420;-83
2024/02/24 10:21:06;;;;;;;1.08;0.75;;;;;;;14.33;100.00;96034.09;5026495;28;20393;-83
2024/02/24 10:23:34;;;;;;;1.15;0.70;;;;;;;14.10;100.00;96043.22;5030191;28;20399;-85
2024/02/24 10:26:00;;;;;;;0.77;0.50;;;;;;;14.36;100.00;96051.31;5027888;28;20475;-84
2024/02/24 10:28:27;;;;;;;0.70;0.70;;;;;;;13.57;100.00;96054.66;5027378;28;20408;-83
2024/02/24 10:30:53;;;;;;;0.88;0.73;;;;;;;12.87;100.00;96074.78;5028963;28;20404;-83
2024/02/24 10:33:21;;;;;;;0.70;0.70;;;;;;;12.31;100.00;96062.63;5030477;28;20427;-82
2024/02/24 10:35:50;;;;;;;2.35;0.95;;;;;;;11.95;100.00;96065.88;5024062;28;20416;-83
2024/02/24 10:38:19;;;;;;;1.25;0.90;;;;;;;11.57;100.00;96062.53;5023834;28;20402;-82
2024/02/24 10:40:48;;;;;;;1.80;0.80;;;;;;;11.96;100.00;96054.22;5017675;28;20406;-83
2024/02/24 10:43:16;;;;;;;0.90;0.70;;;;;;;12.27;100.00;96057.09;5021467;28;20778;-83
2024/02/24 10:45:42;;;;;;;0.70;0.70;;;;;;;12.45;100.00;96055.44;5019190;28;20455;-85
2024/02/24 10:48:09;;;;;;;1.75;0.80;;;;;;;12.05;100.00;96067.59;5025246;28;20409;-85
2024/02/24 10:50:35;;;;;;;0.90;0.90;;;;;;;12.01;100.00;96063.97;5022321;28;20951;-85
2024/02/24 10:53:02;;;;;;;0.70;0.70;;;;;;;11.95;100.00;96073.09;5021362;28;20598;-84
2024/02/24 10:55:29;;;;;;;1.30;0.80;;;;;;;11.20;100.00;96068.63;5021957;28;20477;-84
2024/02/24 10:57:57;;;;;;;0.85;0.77;;;;;;;10.81;100.00;96066.25;5022373;28;20404;-82
2024/02/24 11:00:24;;;;;;;0.87;0.80;;;;;;;10.75;100.00;96066.63;5022378;28;20389;-83
2024/02/24 11:02:51;;;;;;;0.80;0.80;;;;;;;10.64;100.00;96075.75;5021785;28;20424;-84
2024/02/24 11:05:17;;;;;;;1.40;0.80;;;;;;;10.24;100.00;96069.81;5029320;28;20410;-83
2024/02/24 11:07:44;;;;;;;1.52;1.00;;;;;;;9.70;100.00;96080.59;5030973;28;20404;-83
2024/02/24 11:10:17;;;;;;;1.20;0.88;;;;;;;9.40;100.00;96083.50;5038843;28;20399;-83
2024/02/24 11:12:43;;;;;;;1.48;1.08;;;;;;;9.44;100.00;96089.81;5030930;28;20395;-84
2024/02/24 11:15:18;;;;;;;1.13;1.00;;;;;;;9.84;100.00;96092.13;5029325;28;20920;-81
2024/02/24 11:17:50;;;;;;;0.85;0.85;;;;;;;10.13;100.00;96105.34;5028661;28;20401;-82
2024/02/24 11:20:53;;;;;;;1.10;1.00;;;;;;;10.60;100.00;96098.56;5039837;28;20552;-82
2024/02/24 11:23:21;;;;;;;0.90;0.90;;;;;;;10.71;100.00;96100.78;5031095;28;20406;-80
2024/02/24 11:25:47;;;;;;;0.85;0.80;;;;;;;10.98;100.00;96102.03;5022166;28;20401;-80
2024/02/24 11:28:20;;;;;;;1.20;0.90;;;;;;;11.16;100.00;96102.06;5027769;28;20425;-81
2024/02/24 11:30:51;;;;;;;0.70;0.70;;;;;;;11.33;100.00;96103.44;5028420;28;20832;-80